createdAt,value
2019-02-25T00:01:31.020Z,103376.47
2019-02-25T00:04:00.706Z,103365.27
2019-02-25T00:06:30.607Z,103366.07
2019-02-25T00:09:00.367Z,103364.78
2019-02-25T00:11:31.778Z,103357.91
2019-02-25T00:14:01.689Z,103355.32
2019-02-25T00:16:31.748Z,103365.65
2019-02-25T00:19:02.561Z,103363.48
2019-02-25T00:21:32.313Z,103353.58
2019-02-25T00:24:01.977Z,103351.83
2019-02-25T00:26:31.899Z,103353.98
2019-02-25T00:29:01.571Z,103354.79
2019-02-25T00:31:31.263Z,103355.20
2019-02-25T00:34:01.107Z,103351.73
2019-02-25T00:36:30.821Z,103348.66
2019-02-25T00:39:00.496Z,103348.20
2019-02-25T00:41:32.061Z,103345.20
2019-02-25T00:44:01.737Z,103337.88
2019-02-25T00:46:31.802Z,103335.70
2019-02-25T00:49:01.477Z,103332.25
2019-02-25T00:51:31.151Z,103331.84
2019-02-25T00:54:01.350Z,103329.26
2019-02-25T00:56:31.033Z,103326.22
2019-02-25T00:59:02.148Z,103328.34
2019-02-25T01:01:32.094Z,103325.72
2019-02-25T01:04:02.832Z,103331.28
2019-02-25T01:06:32.525Z,103336.45
2019-02-25T01:09:02.212Z,103331.70
2019-02-25T01:11:34.428Z,103330.78
2019-02-25T01:14:05.180Z,103337.22
2019-02-25T01:16:35.089Z,103332.05
2019-02-25T01:19:05.560Z,103337.63
2019-02-25T01:21:35.246Z,103334.59
2019-02-25T01:24:04.985Z,103328.60
2019-02-25T01:26:34.673Z,103324.73
2019-02-25T01:29:05.241Z,103332.88
2019-02-25T01:31:34.932Z,103332.88
2019-02-25T01:34:04.760Z,103335.42
2019-02-25T01:36:34.697Z,103335.00
2019-02-25T01:39:06.597Z,103327.21
2019-02-25T01:41:36.669Z,103331.91
2019-02-25T01:44:07.294Z,103325.91
2019-02-25T01:46:36.969Z,103316.01
2019-02-25T01:49:06.682Z,103319.88
2019-02-25T01:51:36.366Z,103325.87
2019-02-25T01:54:06.113Z,103326.28
2019-02-25T01:56:35.905Z,103324.52
2019-02-25T01:59:05.596Z,103321.06
2019-02-25T02:01:35.329Z,103324.09
2019-02-25T02:04:04.956Z,103318.06
2019-02-25T02:06:34.627Z,103318.48
2019-02-25T02:09:07.429Z,103322.34
2019-02-25T02:11:38.508Z,103323.17
2019-02-25T02:14:08.173Z,103322.30
2019-02-25T02:16:37.844Z,103319.71
2019-02-25T02:19:07.512Z,103315.42
2019-02-25T02:21:37.287Z,103313.27
2019-02-25T02:24:06.908Z,103303.37
2019-02-25T02:26:36.576Z,103295.16
2019-02-25T02:29:06.531Z,103289.54
2019-02-25T02:31:36.209Z,103295.10
2019-02-25T02:34:06.030Z,103301.55
2019-02-25T02:36:35.685Z,103304.13
2019-02-25T02:39:07.519Z,103302.84
2019-02-25T02:42:15.506Z,103301.96
2019-02-25T02:44:46.879Z,103300.66
2019-02-25T02:47:43.395Z,103303.23
2019-02-25T02:50:16.298Z,103301.48
2019-02-25T02:52:46.123Z,103303.61
2019-02-25T02:55:15.799Z,103309.16
2019-02-25T02:57:45.473Z,103304.40
2019-02-25T03:00:17.574Z,103302.70
2019-02-25T03:02:47.552Z,103310.86
2019-02-25T03:05:18.023Z,103299.26
2019-02-25T03:07:47.790Z,103300.53
2019-02-25T03:10:18.456Z,103303.00
2019-02-25T03:12:48.188Z,103303.00
2019-02-25T03:15:19.701Z,103290.52
2019-02-25T03:17:49.463Z,103290.50
2019-02-25T03:20:19.270Z,103291.75
2019-02-25T03:22:49.272Z,103292.15
2019-02-25T03:25:19.211Z,103298.58
2019-02-25T03:27:49.506Z,103304.15
2019-02-25T03:30:20.438Z,103304.55
2019-02-25T03:32:50.286Z,103302.84
2019-02-25T03:35:20.542Z,103301.97
2019-02-25T03:37:50.224Z,103295.52
2019-02-25T03:40:20.410Z,103301.08
2019-02-25T03:42:51.445Z,103295.45
2019-02-25T03:45:22.261Z,103298.86
2019-02-25T03:47:52.258Z,103294.52
2019-02-25T03:50:22.001Z,103293.16
2019-02-25T03:52:51.745Z,103297.40
2019-02-25T03:55:21.612Z,103297.34
2019-02-25T03:57:51.380Z,103299.09
2019-02-25T04:00:22.103Z,103295.66
2019-02-25T04:02:51.866Z,103302.55
2019-02-25T04:05:21.656Z,103301.27
2019-02-25T04:07:51.500Z,103298.23
2019-02-25T04:10:21.317Z,103297.75
2019-02-25T04:12:51.002Z,103310.61
2019-02-25T04:15:23.876Z,103305.94
2019-02-25T04:17:53.652Z,103317.95
2019-02-25T04:20:23.416Z,103315.85
2019-02-25T04:22:53.086Z,103311.56
2019-02-25T04:25:22.758Z,103323.17
2019-02-25T04:27:52.718Z,103314.15
2019-02-25T04:30:22.474Z,103310.68
2019-02-25T04:32:52.376Z,103312.33
2019-02-25T04:35:22.043Z,103316.19
2019-02-25T04:37:51.705Z,103316.18
2019-02-25T04:40:21.517Z,103319.14
2019-02-25T04:42:51.386Z,103321.23
2019-02-25T04:45:21.220Z,103320.34
2019-02-25T04:47:51.816Z,103307.81
2019-02-25T04:50:21.490Z,103305.64
2019-02-25T04:52:51.398Z,103300.47
2019-02-25T04:55:22.054Z,103305.63
2019-02-25T04:57:52.728Z,103301.77
2019-02-25T05:00:22.440Z,103302.66
2019-02-25T05:02:52.345Z,103293.66
2019-02-25T05:05:23.083Z,103291.08
2019-02-25T05:07:52.758Z,103296.22
2019-02-25T05:10:22.545Z,103300.89
2019-02-25T05:12:57.079Z,103303.44
2019-02-25T05:15:27.026Z,103304.67
2019-02-25T05:17:56.709Z,103301.20
2019-02-25T05:20:26.414Z,103310.62
2019-02-25T05:22:56.099Z,103314.06
2019-02-25T05:25:26.099Z,103314.94
2019-02-25T05:27:56.752Z,103318.34
2019-02-25T05:30:26.432Z,103321.78
2019-02-25T05:32:56.123Z,103320.47
2019-02-25T05:35:26.043Z,103320.89
2019-02-25T05:37:55.971Z,103314.84
2019-02-25T05:40:25.828Z,103315.27
2019-02-25T05:42:56.038Z,103322.16
2019-02-25T05:45:25.764Z,103324.28
2019-02-25T05:47:55.429Z,103318.73
2019-02-25T05:50:25.114Z,103320.90
2019-02-25T05:52:54.795Z,103321.31
2019-02-25T05:55:24.537Z,103325.63
2019-02-25T05:57:54.409Z,103328.14
2019-02-25T06:00:25.711Z,103324.69
2019-02-25T06:02:55.445Z,103319.98
2019-02-25T06:05:25.231Z,103331.10
2019-02-25T06:07:54.921Z,103328.10
2019-02-25T06:10:24.590Z,103321.63
2019-02-25T06:12:54.283Z,103330.23
2019-02-25T06:15:24.046Z,103329.80
2019-02-25T06:17:53.716Z,103331.09
2019-02-25T06:20:23.390Z,103330.23
2019-02-25T06:22:53.680Z,103331.08
2019-02-25T06:25:23.373Z,103334.94
2019-02-25T06:27:53.026Z,103338.75
2019-02-25T06:30:22.868Z,103343.47
2019-02-25T06:32:52.625Z,103346.87
2019-02-25T06:35:22.291Z,103345.16
2019-02-25T06:37:52.778Z,103345.14
2019-02-25T06:40:22.534Z,103353.20
2019-02-25T06:42:52.215Z,103353.20
2019-02-25T06:45:22.029Z,103351.03
2019-02-25T06:47:51.936Z,103350.61
2019-02-25T06:50:21.618Z,103348.45
2019-02-25T06:52:51.332Z,103346.47
2019-02-25T06:55:21.952Z,103344.92
2019-02-25T06:57:51.675Z,103353.13
2019-02-25T07:00:22.065Z,103352.67
2019-02-25T07:02:51.911Z,103359.97
2019-02-25T07:05:40.120Z,103355.22
2019-02-25T07:08:12.303Z,103361.57
2019-02-25T07:10:46.180Z,103361.08
2019-02-25T07:13:34.872Z,103371.77
2019-02-25T07:16:18.123Z,103373.45
2019-02-25T07:19:00.925Z,103370.47
2019-02-25T07:21:50.141Z,103372.59
2019-02-25T07:24:27.625Z,103376.05
2019-02-25T07:27:07.598Z,103371.38
2019-02-25T07:29:46.762Z,103365.37
2019-02-25T07:32:39.502Z,103370.17
2019-02-25T07:35:21.618Z,103383.94
2019-02-25T07:37:58.837Z,103383.08
2019-02-25T07:40:48.107Z,103379.70
2019-02-25T07:43:36.532Z,103381.05
2019-02-25T07:46:13.694Z,103381.05
2019-02-25T07:49:02.577Z,103384.06
2019-02-25T07:51:54.053Z,103388.40
2019-02-25T07:54:30.527Z,103400.48
2019-02-25T07:57:34.373Z,103395.02
2019-02-25T08:00:28.994Z,103406.28
2019-02-25T08:03:05.615Z,103404.69
2019-02-25T08:05:57.986Z,103405.67
2019-02-25T08:08:44.426Z,103409.23
2019-02-25T08:11:24.201Z,103410.24
2019-02-25T08:14:15.057Z,103411.23
2019-02-25T08:17:09.623Z,103405.73
2019-02-25T08:19:50.580Z,103401.95
2019-02-25T08:22:31.942Z,103398.21
2019-02-25T08:25:11.837Z,103396.98
2019-02-25T08:28:06.641Z,103403.52
2019-02-25T08:30:58.785Z,103406.17
2019-02-25T08:33:55.406Z,103404.98
2019-02-25T08:37:21.277Z,103395.57
2019-02-25T08:40:00.293Z,103398.73
2019-02-25T08:42:50.650Z,103401.02
2019-02-25T08:45:37.747Z,103401.16
2019-02-25T08:48:17.457Z,103399.55
2019-02-25T08:50:47.158Z,103400.93
2019-02-25T08:53:17.121Z,103404.93
2019-02-25T08:55:46.876Z,103410.20
2019-02-25T08:58:16.693Z,103418.48
2019-02-25T09:00:46.358Z,103427.62
2019-02-25T09:03:16.090Z,103420.75
2019-02-25T09:05:45.762Z,103422.09
2019-02-25T09:08:15.533Z,103423.89
2019-02-25T09:10:45.200Z,103429.98
2019-02-25T09:13:15.111Z,103431.32
2019-02-25T09:15:44.777Z,103427.46
2019-02-25T09:18:14.453Z,103434.38
2019-02-25T09:20:44.289Z,103435.63
2019-02-25T09:23:14.220Z,103433.48
2019-02-25T09:25:44.128Z,103436.47
2019-02-25T09:28:13.843Z,103436.02
2019-02-25T09:30:43.577Z,103432.53
2019-02-25T09:33:13.258Z,103438.97
2019-02-25T09:35:42.973Z,103440.69
2019-02-25T09:38:12.901Z,103435.85
2019-02-25T09:40:42.598Z,103427.13
2019-02-25T09:43:12.866Z,103433.55
2019-02-25T09:45:42.536Z,103433.08
2019-02-25T09:48:12.279Z,103423.89
2019-02-25T09:50:42.042Z,103419.88
2019-02-25T09:53:11.955Z,103422.87
2019-02-25T09:55:41.705Z,103414.59
2019-02-25T09:58:11.463Z,103417.47
2019-02-25T10:00:41.417Z,103411.71
2019-02-25T10:03:11.090Z,103404.19
2019-02-25T10:05:40.774Z,103405.75
2019-02-25T10:08:10.473Z,103408.20
2019-02-25T10:10:40.446Z,103414.13
2019-02-25T10:13:10.357Z,103408.28
2019-02-25T10:15:40.114Z,103401.50
2019-02-25T10:18:10.125Z,103402.11
2019-02-25T10:20:40.037Z,103406.56
2019-02-25T10:23:09.945Z,103406.56
2019-02-25T10:25:39.709Z,103405.53
2019-02-25T10:28:09.649Z,103394.55
2019-02-25T10:30:39.867Z,103397.72
2019-02-25T10:33:10.608Z,103399.18
2019-02-25T10:35:40.275Z,103394.18
2019-02-25T10:38:09.968Z,103387.91
2019-02-25T10:40:39.668Z,103393.61
2019-02-25T10:43:09.342Z,103383.32
2019-02-25T10:45:41.054Z,103391.73
2019-02-25T10:48:12.072Z,103391.53
2019-02-25T10:50:41.834Z,103393.53
2019-02-25T10:53:13.564Z,103387.66
2019-02-25T10:55:49.322Z,103389.17
2019-02-25T10:58:20.791Z,103391.45
2019-02-25T11:00:50.627Z,103391.47
2019-02-25T11:03:21.778Z,103383.03
2019-02-25T11:05:52.174Z,103381.98
2019-02-25T11:08:23.268Z,103377.14
2019-02-25T11:11:12.549Z,103375.34
2019-02-25T11:13:42.622Z,103368.72
2019-02-25T11:16:13.910Z,103365.00
2019-02-25T11:18:43.970Z,103363.47
2019-02-25T11:21:13.715Z,103359.20
2019-02-25T11:23:45.053Z,103352.45
2019-02-25T11:26:15.899Z,103352.45
2019-02-25T11:28:49.958Z,103349.42
2019-02-25T11:31:22.796Z,103337.98
2019-02-25T11:33:51.159Z,103332.58
2019-02-25T11:36:22.053Z,103330.47
2019-02-25T11:38:51.813Z,103327.94
2019-02-25T11:41:21.564Z,103323.75
2019-02-25T11:43:52.983Z,103323.27
2019-02-25T11:46:23.145Z,103314.41
2019-02-25T11:48:52.941Z,103307.08
2019-02-25T11:51:22.746Z,103303.65
2019-02-25T11:53:52.365Z,103297.72
2019-02-25T11:56:22.113Z,103293.23
2019-02-25T11:58:53.165Z,103298.25
2019-02-25T12:01:22.827Z,103290.64
2019-02-25T12:03:52.570Z,103290.69
2019-02-25T12:06:22.367Z,103286.26
2019-02-25T12:08:52.033Z,103288.77
2019-02-25T12:11:21.973Z,103285.05
2019-02-25T12:13:51.645Z,103287.13
2019-02-25T12:16:21.800Z,103273.52
2019-02-25T12:18:52.021Z,103277.39
2019-02-25T12:21:21.676Z,103279.71
2019-02-25T12:23:51.593Z,103285.22
2019-02-25T12:26:21.284Z,103286.46
2019-02-25T12:28:51.255Z,103292.41
2019-02-25T12:32:09.065Z,103297.03
2019-02-25T12:34:44.040Z,103288.68
2019-02-25T12:37:13.720Z,103280.87
2019-02-25T12:39:43.402Z,103270.48
2019-02-25T12:42:13.068Z,103272.75
2019-02-25T12:44:42.758Z,103264.42
2019-02-25T12:47:12.678Z,103266.86
2019-02-25T12:49:42.360Z,103263.81
2019-02-25T12:52:12.300Z,103262.73
2019-02-25T12:54:41.966Z,103265.59
2019-02-25T12:57:11.637Z,103268.45
2019-02-25T12:59:41.450Z,103260.37
2019-02-25T13:02:11.320Z,103253.39
2019-02-25T13:04:40.989Z,103255.42
2019-02-25T13:07:10.659Z,103257.16
2019-02-25T13:09:40.339Z,103256.95
2019-02-25T13:12:10.038Z,103254.89
2019-02-25T13:14:40.012Z,103254.40
2019-02-25T13:17:09.686Z,103252.31
2019-02-25T13:19:39.617Z,103250.63
2019-02-25T13:22:09.412Z,103255.01
2019-02-25T13:24:39.591Z,103249.16
2019-02-25T13:27:11.765Z,103252.78
2019-02-25T13:29:40.919Z,103247.84
2019-02-25T13:32:10.603Z,103247.37
2019-02-25T13:34:40.277Z,103243.47
2019-02-25T13:37:10.894Z,103247.94
2019-02-25T13:39:40.575Z,103252.36
2019-02-25T13:42:11.219Z,103247.23
2019-02-25T13:44:40.905Z,103241.11
2019-02-25T13:47:10.598Z,103241.69
2019-02-25T13:49:40.257Z,103240.46
2019-02-25T13:52:10.231Z,103242.44
2019-02-25T13:54:39.896Z,103242.15
2019-02-25T13:57:09.565Z,103244.80
2019-02-25T13:59:39.332Z,103245.95
2019-02-25T14:02:09.140Z,103245.70
2019-02-25T14:04:39.151Z,103243.77
2019-02-25T14:07:08.920Z,103239.19
2019-02-25T14:09:38.814Z,103239.80
2019-02-25T14:12:08.629Z,103240.16
2019-02-25T14:14:38.380Z,103235.05
2019-02-25T14:17:08.152Z,103233.84
2019-02-25T14:19:37.896Z,103228.00
2019-02-25T14:22:07.627Z,103233.29
2019-02-25T14:24:38.567Z,103234.88
2019-02-25T14:27:11.729Z,103229.78
2019-02-25T14:29:41.727Z,103234.29
2019-02-25T14:32:15.377Z,103233.13
2019-02-25T14:34:46.449Z,103240.42
2019-02-25T14:37:17.546Z,103235.88
2019-02-25T14:39:51.593Z,103239.48
2019-02-25T14:42:20.834Z,103233.08
2019-02-25T14:44:52.233Z,103231.95
2019-02-25T14:47:25.738Z,103228.22
2019-02-25T14:49:53.194Z,103228.69
2019-02-25T14:52:24.464Z,103232.50
2019-02-25T14:54:54.406Z,103232.50
2019-02-25T14:57:24.839Z,103231.23
2019-02-25T14:59:55.641Z,103230.19
2019-02-25T15:02:25.438Z,103237.13
2019-02-25T15:04:55.110Z,103237.90
2019-02-25T15:07:24.869Z,103236.58
2019-02-25T15:09:54.590Z,103238.91
2019-02-25T15:12:25.565Z,103233.19
2019-02-25T15:14:55.891Z,103233.19
2019-02-25T15:17:25.713Z,103234.66
2019-02-25T15:19:55.608Z,103237.68
2019-02-25T15:22:27.898Z,103240.01
2019-02-25T15:24:57.110Z,103238.47
2019-02-25T15:27:27.641Z,103241.15
2019-02-25T15:29:57.686Z,103234.47
2019-02-25T15:32:29.507Z,103234.56
2019-02-25T15:34:58.753Z,103232.55
2019-02-25T15:37:28.508Z,103230.17
2019-02-25T15:39:58.550Z,103224.89
2019-02-25T15:42:29.766Z,103221.93
2019-02-25T15:44:59.731Z,103224.56
2019-02-25T15:47:29.503Z,103217.28
2019-02-25T15:50:03.665Z,103217.91
2019-02-25T15:52:39.698Z,103212.00
2019-02-25T15:55:03.371Z,103209.07
2019-02-25T15:57:35.219Z,103214.03
2019-02-25T16:00:06.120Z,103220.84
2019-02-25T16:02:37.034Z,103223.05
2019-02-25T16:05:09.952Z,103225.99
2019-02-25T16:07:40.224Z,103222.34
2019-02-25T16:10:12.005Z,103220.33
2019-02-25T16:12:42.480Z,103220.91
2019-02-25T16:15:14.961Z,103218.11
2019-02-25T16:17:45.667Z,103221.38
2019-02-25T16:20:17.516Z,103223.36
2019-02-25T16:22:48.052Z,103219.70
2019-02-25T16:25:18.166Z,103218.30
2019-02-25T16:27:50.509Z,103220.81
2019-02-25T16:30:21.334Z,103220.39
2019-02-25T16:32:51.221Z,103217.22
2019-02-25T16:35:21.188Z,103214.99
2019-02-25T16:37:53.058Z,103216.75
2019-02-25T16:40:26.410Z,103212.71
2019-02-25T16:42:57.013Z,103209.65
2019-02-25T16:45:28.547Z,103207.41
2019-02-25T16:47:57.618Z,103201.79
2019-02-25T16:50:27.487Z,103203.94
2019-02-25T16:52:57.560Z,103202.59
2019-02-25T16:55:27.869Z,103203.13
2019-02-25T16:57:59.083Z,103200.49
2019-02-25T17:00:30.038Z,103204.95
2019-02-25T17:03:03.600Z,103204.61
2019-02-25T17:05:33.664Z,103196.06
2019-02-25T17:08:08.133Z,103196.42
2019-02-25T17:10:38.791Z,103189.66
2019-02-25T17:13:10.192Z,103201.56
2019-02-25T17:15:40.035Z,103198.48
2019-02-25T17:18:10.078Z,103210.83
2019-02-25T17:20:39.837Z,103209.17
2019-02-25T17:23:10.227Z,103213.63
2019-02-25T17:25:40.740Z,103214.93
2019-02-25T17:28:14.782Z,103212.77
2019-02-25T17:30:43.390Z,103210.09
2019-02-25T17:33:14.806Z,103211.00
2019-02-25T17:35:45.225Z,103208.80
2019-02-25T17:38:15.930Z,103211.35
2019-02-25T17:40:47.538Z,103216.55
2019-02-25T17:43:19.981Z,103220.38
2019-02-25T17:45:49.335Z,103217.57
2019-02-25T17:48:21.014Z,103211.30
2019-02-25T17:50:50.475Z,103216.42
2019-02-25T17:53:22.342Z,103217.21
2019-02-25T17:55:53.354Z,103215.83
2019-02-25T17:58:24.033Z,103213.69
2019-02-25T18:00:54.634Z,103212.00
2019-02-25T18:03:26.513Z,103212.53
2019-02-25T18:05:56.912Z,103208.23
2019-02-25T18:08:28.765Z,103210.27
2019-02-25T18:10:59.361Z,103212.33
2019-02-25T18:13:30.649Z,103215.63
2019-02-25T18:16:01.007Z,103214.17
2019-02-25T18:18:30.760Z,103211.04
2019-02-25T18:21:00.527Z,103212.52
2019-02-25T18:23:30.601Z,103211.41
2019-02-25T18:26:00.338Z,103198.61
2019-02-25T18:28:30.083Z,103199.23
2019-02-25T18:31:01.662Z,103204.17
2019-02-25T18:33:31.635Z,103201.70
2019-02-25T18:36:02.369Z,103201.93
2019-02-25T18:38:33.364Z,103212.08
2019-02-25T18:41:04.745Z,103219.22
2019-02-25T18:43:35.546Z,103221.09
2019-02-25T18:46:07.173Z,103220.84
2019-02-25T18:48:36.996Z,103207.14
2019-02-25T18:51:06.943Z,103203.53
2019-02-25T18:53:37.029Z,103208.95
2019-02-25T18:56:09.556Z,103204.81
2019-02-25T18:58:39.484Z,103207.11
2019-02-25T19:01:11.325Z,103216.83
2019-02-25T19:03:41.585Z,103209.59
2019-02-25T19:06:11.685Z,103206.67
2019-02-25T19:08:43.084Z,103201.22
2019-02-25T19:11:15.112Z,103197.92
2019-02-25T19:13:46.189Z,103207.16
2019-02-25T19:16:20.582Z,103206.39
2019-02-25T19:18:51.827Z,103197.85
2019-02-25T19:21:22.879Z,103200.09
2019-02-25T19:23:53.048Z,103194.55
2019-02-25T19:26:23.340Z,103200.33
2019-02-25T19:28:54.726Z,103193.48
2019-02-25T19:31:26.131Z,103189.65
2019-02-25T19:33:56.258Z,103190.21
2019-02-25T19:36:27.958Z,103190.73
2019-02-25T19:38:57.648Z,103193.47
2019-02-25T19:41:29.800Z,103188.81
2019-02-25T19:44:01.454Z,103185.44
2019-02-25T19:46:30.174Z,103185.50
2019-02-25T19:48:59.855Z,103183.36
2019-02-25T19:51:29.884Z,103181.77
2019-02-25T19:54:02.681Z,103184.00
2019-02-25T19:56:32.409Z,103183.65
2019-02-25T19:59:03.713Z,103181.16
2019-02-25T20:01:34.130Z,103184.32
2019-02-25T20:04:06.424Z,103185.78
2019-02-25T20:06:35.807Z,103188.02
2019-02-25T20:09:07.660Z,103192.86
2019-02-25T20:11:38.861Z,103188.52
2019-02-25T20:14:10.890Z,103188.14
2019-02-25T20:16:40.441Z,103182.53
2019-02-25T20:19:10.193Z,103187.34
2019-02-25T20:21:40.108Z,103190.39
2019-02-25T20:24:14.429Z,103187.81
2019-02-25T20:26:41.817Z,103186.56
2019-02-25T20:29:12.775Z,103185.72
2019-02-25T20:31:43.368Z,103183.16
2019-02-25T20:34:16.512Z,103177.55
2019-02-25T20:36:46.496Z,103170.24
2019-02-25T20:39:17.041Z,103171.56
2019-02-25T20:41:48.332Z,103166.81
2019-02-25T20:44:18.602Z,103162.11
2019-02-25T20:46:52.637Z,103155.66
2019-02-25T20:49:22.758Z,103163.08
2019-02-25T20:51:54.547Z,103160.13
2019-02-25T20:54:24.821Z,103161.04
2019-02-25T20:56:55.463Z,103154.17
2019-02-25T20:59:25.794Z,103152.95
2019-02-25T21:01:56.641Z,103145.66
2019-02-25T21:04:27.661Z,103146.55
2019-02-25T21:06:57.461Z,103144.91
2019-02-25T21:09:27.143Z,103148.42
2019-02-25T21:11:57.074Z,103147.59
2019-02-25T21:14:29.483Z,103142.45
2019-02-25T21:17:00.459Z,103150.27
2019-02-25T21:19:29.625Z,103135.64
2019-02-25T21:22:02.005Z,103135.67
2019-02-25T21:24:33.290Z,103139.16
2019-02-25T21:27:03.674Z,103138.31
2019-02-25T21:29:38.341Z,103131.87
2019-02-25T21:32:07.028Z,103131.48
2019-02-25T21:34:36.774Z,103136.27
2019-02-25T21:37:06.524Z,103144.47
2019-02-25T21:39:37.088Z,103144.05
2019-02-25T21:42:10.627Z,103143.61
2019-02-25T21:44:39.097Z,103149.70
2019-02-25T21:47:08.794Z,103152.33
2019-02-25T21:49:40.426Z,103157.95
2019-02-25T21:52:13.193Z,103155.36
2019-02-25T21:54:44.819Z,103154.94
2019-02-25T21:57:14.656Z,103151.94
2019-02-25T21:59:44.384Z,103148.06
2019-02-25T22:02:14.367Z,103154.08
2019-02-25T22:04:45.390Z,103154.52
2019-02-25T22:07:19.834Z,103149.77
2019-02-25T22:09:46.787Z,103150.20
2019-02-25T22:12:17.522Z,103149.75
2019-02-25T22:14:47.708Z,103154.94
2019-02-25T22:17:20.620Z,103158.83
2019-02-25T22:19:51.143Z,103159.28
2019-02-25T22:22:24.165Z,103158.41
2019-02-25T22:24:52.466Z,103152.82
2019-02-25T22:27:23.084Z,103156.30
2019-02-25T22:29:52.944Z,103151.97
2019-02-25T22:32:22.638Z,103161.03
2019-02-25T22:34:52.373Z,103159.33
2019-02-25T22:37:24.439Z,103154.19
2019-02-25T22:39:54.648Z,103152.47
2019-02-25T22:42:25.278Z,103150.77
2019-02-25T22:44:56.156Z,103155.56
2019-02-25T22:47:26.117Z,103144.80
2019-02-25T22:49:55.869Z,103148.69
2019-02-25T22:52:27.190Z,103140.08
2019-02-25T22:54:57.055Z,103125.44
2019-02-25T22:57:27.860Z,103117.69
2019-02-25T22:59:58.410Z,103116.86
2019-02-25T23:02:28.428Z,103116.86
2019-02-25T23:04:58.170Z,103109.50
2019-02-25T23:07:29.160Z,103108.64
2019-02-25T23:09:58.832Z,103118.58
2019-02-25T23:12:29.440Z,103123.33
2019-02-25T23:15:00.970Z,103135.84
2019-02-25T23:17:35.178Z,103127.20
2019-02-25T23:20:07.752Z,103133.68
2019-02-25T23:22:39.742Z,103139.27
2019-02-25T23:25:09.697Z,103144.91
2019-02-25T23:27:39.441Z,103140.17
2019-02-25T23:30:09.310Z,103141.89
2019-02-25T23:32:39.555Z,103144.91
2019-02-25T23:35:11.546Z,103142.33
2019-02-25T23:37:40.717Z,103137.58
2019-02-25T23:40:12.526Z,103142.33
2019-02-25T23:42:43.810Z,103138.44
2019-02-25T23:45:15.190Z,103131.56
2019-02-25T23:47:45.272Z,103133.29
2019-02-25T23:50:15.302Z,103140.61
2019-02-25T23:52:45.208Z,103141.90
2019-02-25T23:55:18.621Z,103144.50
2019-02-25T23:57:46.522Z,103137.58
